Allan — WQZ5900 — position and weather

sailwx.info

Track history (hours):
 
Tides and Currents Weather Stations Pressure Air Temp Water Temp Dewpoint Dewpoint Depression Visibility Wind Speed Wind Dir Waves Ship Positions

Allan

Owner: HARBOR DOCKING & TOWING CO, Houston, TX. More information available from US FCC via Universal Licensing System and Coast Guard Vessel Documentation Center.

Last reported at 2018-Feb-19 06:00 UTC. Time now 2018-Feb-19 06:12 UTC.
Position N 30°13' W 093°15'.

Length 35 m.

Type: Tug. MMSI: 366971270.

Date/timePositionNaut miles runAvg speedWind from/ knotsBaromVisibWave heightAir tempDewpointWater temp
2018-Feb-19 06:00N 30°13' W 093°15'0 0.0
2018-Feb-19 05:30N 30°13' W 093°15'0 0.0
2018-Feb-19 05:00N 30°13' W 093°15'0 0.0
2018-Feb-19 04:30N 30°13' W 093°15'0 0.0
2018-Feb-19 04:00N 30°13' W 093°15'0 0.0
2018-Feb-19 03:29N 30°13' W 093°15'0 0.0
2018-Feb-19 03:00N 30°13' W 093°15'0 0.0
2018-Feb-19 02:30N 30°13' W 093°15'0 0.0
2018-Feb-19 02:00N 30°13' W 093°15'0 0.0
2018-Feb-19 01:30N 30°13' W 093°15'0 0.0
2018-Feb-19 01:00N 30°13' W 093°15'0 0.0
2018-Feb-19 00:30N 30°13' W 093°15'0 0.0
2018-Feb-19 00:00N 30°13' W 093°15'0 0.0
2018-Feb-18 23:30N 30°13' W 093°15'0 0.0
2018-Feb-18 23:00N 30°13' W 093°15'0 0.0
2018-Feb-18 22:30N 30°13' W 093°15'0 0.0
2018-Feb-18 22:00N 30°13' W 093°15'0 0.0
2018-Feb-18 21:30N 30°13' W 093°15'0 0.0
2018-Feb-18 21:00N 30°13' W 093°15'1 1.1
2018-Feb-18 20:30N 30°13' W 093°15'0 0.3
2018-Feb-18 20:00N 30°13' W 093°15'1 1.2
2018-Feb-18 19:30N 30°13' W 093°15'0 0.0
2018-Feb-18 19:00N 30°13' W 093°15'0 0.6
2018-Feb-18 18:30N 30°13' W 093°16'4 7.7
2018-Feb-18 18:00N 30°10' W 093°19'1 1.3
2018-Feb-18 17:30N 30°11' W 093°19'3 5.9
2018-Feb-18 17:00N 30°12' W 093°16'1 2.4
2018-Feb-18 16:30N 30°14' W 093°16'1 1.1
2018-Feb-18 16:00N 30°14' W 093°15'1 2.3
2018-Feb-18 15:30N 30°13' W 093°15'0 0.5
2018-Feb-18 15:00N 30°13' W 093°15'0 0.0
2018-Feb-18 14:30N 30°13' W 093°15'0 0.0
2018-Feb-18 14:00N 30°13' W 093°15'0 0.0
2018-Feb-18 13:31N 30°13' W 093°15'0 0.0
2018-Feb-18 13:00N 30°13' W 093°15'0 0.0
2018-Feb-18 12:30N 30°13' W 093°15'0 0.0
2018-Feb-18 12:00N 30°13' W 093°15'0 0.0
2018-Feb-18 11:30N 30°13' W 093°15'0 0.0
2018-Feb-18 11:00N 30°13' W 093°15'0 0.0
2018-Feb-18 10:31N 30°13' W 093°15'0 0.0
2018-Feb-18 10:00N 30°13' W 093°15'0 0.0
2018-Feb-18 09:30N 30°13' W 093°15'0 0.0
2018-Feb-18 09:00N 30°13' W 093°15'0 0.0
2018-Feb-18 08:30N 30°13' W 093°15'0 0.0
2018-Feb-18 08:00N 30°13' W 093°15'0 0.0
2018-Feb-18 07:30N 30°13' W 093°15'0 0.0
2018-Feb-18 07:00N 30°13' W 093°15'0 0.0
2018-Feb-18 06:30N 30°13' W 093°15'0 0.0
2018-Feb-18 06:01N 30°13' W 093°15'0 0.0
2018-Feb-18 05:30N 30°13' W 093°15'0 0.0
2018-Feb-18 05:00N 30°13' W 093°15'0 0.0
2018-Feb-18 04:30N 30°13' W 093°15'0 0.0
2018-Feb-18 04:00N 30°13' W 093°15'0 0.0
2018-Feb-18 03:30N 30°13' W 093°15'0 0.0
2018-Feb-18 03:00N 30°13' W 093°15'0 0.0
2018-Feb-18 02:30N 30°13' W 093°15'0 0.0
2018-Feb-18 02:00N 30°13' W 093°15'0 0.0
2018-Feb-18 01:30N 30°13' W 093°15'0 0.0
2018-Feb-18 01:00N 30°13' W 093°15'0 0.0
2018-Feb-18 00:30N 30°13' W 093°15'0 0.0
2018-Feb-18 00:00N 30°13' W 093°15'0 0.0
2018-Feb-17 23:30N 30°13' W 093°15'0 0.0
2018-Feb-17 23:00N 30°13' W 093°15'0 0.0
2018-Feb-17 22:30N 30°13' W 093°15'0 0.0
2018-Feb-17 22:00N 30°13' W 093°15'0 0.0
2018-Feb-17 21:30N 30°13' W 093°15'0 0.6
2018-Feb-17 21:00N 30°13' W 093°15'0 0.4
2018-Feb-17 20:30N 30°13' W 093°16'1 2.0
2018-Feb-17 20:00N 30°12' W 093°17'1 2.9
2018-Feb-17 19:30N 30°13' W 093°15'0 0.0
2018-Feb-17 19:00N 30°13' W 093°15'0 0.0
2018-Feb-17 18:30N 30°13' W 093°15'0 0.0
2018-Feb-17 18:00N 30°13' W 093°15'0 0.0
2018-Feb-17 17:30N 30°13' W 093°15'0 0.0
2018-Feb-17 17:00N 30°13' W 093°15'0 0.0
2018-Feb-17 16:31N 30°13' W 093°15'0 0.0
2018-Feb-17 16:00N 30°13' W 093°15'0 0.0
2018-Feb-17 15:30N 30°13' W 093°15'0 0.0
2018-Feb-17 15:00N 30°13' W 093°15'0 0.0
2018-Feb-17 14:30N 30°13' W 093°15'0 0.0
2018-Feb-17 14:00N 30°13' W 093°15'0 0.0
2018-Feb-17 13:30N 30°13' W 093°15'0 0.0
2018-Feb-17 13:00N 30°13' W 093°15'0 0.0
2018-Feb-17 12:30N 30°13' W 093°15'0 0.0
2018-Feb-17 12:00N 30°13' W 093°15'0 0.0
2018-Feb-17 11:30N 30°13' W 093°15'0 0.0
2018-Feb-17 11:00N 30°13' W 093°15'0 0.0
2018-Feb-17 10:31N 30°13' W 093°15'0 0.0
2018-Feb-17 10:00N 30°13' W 093°15'0 0.0
2018-Feb-17 09:30N 30°13' W 093°15'0 0.0
2018-Feb-17 09:00N 30°13' W 093°15'0 0.0
2018-Feb-17 08:30N 30°13' W 093°15'0 0.0
2018-Feb-17 08:00N 30°13' W 093°15'0 0.0
2018-Feb-17 07:30N 30°13' W 093°15'0 0.0
2018-Feb-17 07:00N 30°13' W 093°15'0 0.0
2018-Feb-17 06:30N 30°13' W 093°15'0 0.0
2018-Feb-17 06:00N 30°13' W 093°15'0 0.0
2018-Feb-17 05:30N 30°13' W 093°15'0 0.0
2018-Feb-17 05:00N 30°13' W 093°15'0 0.0
2018-Feb-17 04:30N 30°13' W 093°15'0 0.0
2018-Feb-17 04:00N 30°13' W 093°15'0 0.0
2018-Feb-17 03:30N 30°13' W 093°15'0 0.0
2018-Feb-17 03:00N 30°13' W 093°15'0 0.0
2018-Feb-17 02:30N 30°13' W 093°15'0 0.0
2018-Feb-17 02:00N 30°13' W 093°15'0 0.0
2018-Feb-17 01:28N 30°13' W 093°15'0 0.0
2018-Feb-17 01:01N 30°13' W 093°15'0 0.0
2018-Feb-17 00:30N 30°13' W 093°15'0 0.0
2018-Feb-17 00:00N 30°13' W 093°15'0 0.0
2018-Feb-16 23:22N 30°13' W 093°15'0 0.0
2018-Feb-16 23:00N 30°13' W 093°15'0 0.0
2018-Feb-16 22:30N 30°13' W 093°15'0 0.0
2018-Feb-16 22:00N 30°13' W 093°15'0 0.0
2018-Feb-16 21:30N 30°13' W 093°15'0 0.0
2018-Feb-16 21:00N 30°13' W 093°15'0 0.0
2018-Feb-16 20:30N 30°13' W 093°15'0 0.0
2018-Feb-16 20:00N 30°13' W 093°15'0 0.0
2018-Feb-16 19:30N 30°13' W 093°15'0 0.0
2018-Feb-16 19:00N 30°13' W 093°15'0 0.0
2018-Feb-16 18:29N 30°13' W 093°15'0 0.0
2018-Feb-16 18:00N 30°13' W 093°15'0 0.0
2018-Feb-16 17:30N 30°13' W 093°15'0 0.0
2018-Feb-16 17:00N 30°13' W 093°15'0 0.0
2018-Feb-16 16:30N 30°13' W 093°15'0 0.0
2018-Feb-16 16:00N 30°13' W 093°15'0 0.0
2018-Feb-16 15:30N 30°13' W 093°15'0 0.0
2018-Feb-16 15:00N 30°13' W 093°15'0 0.0
2018-Feb-16 14:30N 30°13' W 093°15'0 0.0
2018-Feb-16 14:00N 30°13' W 093°15'0 0.0
2018-Feb-16 13:30N 30°13' W 093°15'0 0.0
2018-Feb-16 13:00N 30°13' W 093°15'0 0.0
2018-Feb-16 12:30N 30°13' W 093°15'0 0.0
2018-Feb-16 12:00N 30°13' W 093°15'0 0.0
2018-Feb-16 11:30N 30°13' W 093°15'0 0.0
2018-Feb-16 11:00N 30°13' W 093°15'0 0.0
2018-Feb-16 10:30N 30°13' W 093°15'0 0.0
2018-Feb-16 10:00N 30°13' W 093°15'0 0.0
2018-Feb-16 09:30N 30°13' W 093°15'0 0.0
2018-Feb-16 09:00N 30°13' W 093°15'0 0.0
2018-Feb-16 08:30N 30°13' W 093°15'0 0.0
2018-Feb-16 08:00N 30°13' W 093°15'0 0.0
2018-Feb-16 07:30N 30°13' W 093°15'0 0.0
2018-Feb-16 07:00N 30°13' W 093°15'0 0.0
2018-Feb-16 06:30N 30°13' W 093°15'0 0.0
2018-Feb-16 06:00N 30°13' W 093°15'0 0.0
2018-Feb-16 05:30N 30°13' W 093°15'0 0.0
2018-Feb-16 05:00N 30°13' W 093°15'0 0.0
2018-Feb-16 04:30N 30°13' W 093°15'0 0.0
2018-Feb-16 04:00N 30°13' W 093°15'0 0.0
2018-Feb-16 03:30N 30°13' W 093°15'0 0.0
2018-Feb-16 03:00N 30°13' W 093°15'0 0.0
2018-Feb-16 02:30N 30°13' W 093°15'0 0.0
2018-Feb-16 02:00N 30°13' W 093°15'0 0.0
2018-Feb-16 01:30N 30°13' W 093°15'0 0.0
2018-Feb-16 01:00N 30°13' W 093°15'0 0.0
2018-Feb-16 00:28N 30°13' W 093°15'0 0.0
2018-Feb-15 23:56N 30°13' W 093°15'0 0.0
2018-Feb-15 23:30N 30°13' W 093°15'0 0.0
2018-Feb-15 23:00N 30°13' W 093°15'0 0.0
2018-Feb-15 22:30N 30°13' W 093°15'0 0.0
2018-Feb-15 22:00N 30°13' W 093°15'0 0.0
2018-Feb-15 21:30N 30°13' W 093°15'0 0.0
2018-Feb-15 21:00N 30°13' W 093°15'0 0.0
2018-Feb-15 20:30N 30°13' W 093°15'0 0.0
2018-Feb-15 20:00N 30°13' W 093°15'0 0.0
2018-Feb-15 19:30N 30°13' W 093°15'0 0.0
2018-Feb-15 19:00N 30°13' W 093°15'0 0.0
2018-Feb-15 18:30N 30°13' W 093°15'0 0.0
2018-Feb-15 18:00N 30°13' W 093°15'0 0.0
2018-Feb-15 17:30N 30°13' W 093°15'0 0.0
2018-Feb-15 17:00N 30°13' W 093°15'0 0.0
2018-Feb-15 16:30N 30°13' W 093°15'0 0.0
2018-Feb-15 16:00N 30°13' W 093°15'0 0.0
2018-Feb-15 15:30N 30°13' W 093°15'0 0.0
2018-Feb-15 15:00N 30°13' W 093°15'0 0.0
2018-Feb-15 14:30N 30°13' W 093°15'0 0.0
2018-Feb-15 14:00N 30°13' W 093°15'0 0.0
2018-Feb-15 13:30N 30°13' W 093°15'0 0.0
2018-Feb-15 13:00N 30°13' W 093°15'0 0.0
2018-Feb-15 12:30N 30°13' W 093°15'0 0.0
2018-Feb-15 12:00N 30°13' W 093°15'0 0.0
2018-Feb-15 11:30N 30°13' W 093°15'0 0.0
2018-Feb-15 11:00N 30°13' W 093°15'0 0.0
2018-Feb-15 10:30N 30°13' W 093°15'0 0.0
2018-Feb-15 10:00N 30°13' W 093°15'0 0.0
2018-Feb-15 09:30N 30°13' W 093°15'0 0.0
2018-Feb-15 09:00N 30°13' W 093°15'0 0.0
2018-Feb-15 08:30N 30°13' W 093°15'0 0.0
2018-Feb-15 08:00N 30°13' W 093°15'0 0.0
2018-Feb-15 07:30N 30°13' W 093°15'0 0.0
2018-Feb-15 07:00N 30°13' W 093°15'0 0.0
2018-Feb-15 06:30N 30°13' W 093°15'0 0.0
2018-Feb-15 06:00N 30°13' W 093°15'0 0.0
2018-Feb-15 05:30N 30°13' W 093°15'0 0.0
2018-Feb-15 05:00N 30°13' W 093°15'0 0.0
2018-Feb-15 04:30N 30°13' W 093°15'0 0.0
2018-Feb-15 04:00N 30°13' W 093°15'0 0.0
2018-Feb-15 03:30N 30°13' W 093°15'0 0.0
2018-Feb-15 03:00N 30°13' W 093°15'0 0.0
2018-Feb-15 02:22N 30°13' W 093°15'0 0.0
2018-Feb-15 02:00N 30°13' W 093°15'0 0.0
2018-Feb-15 01:30N 30°13' W 093°15'0 0.0
2018-Feb-15 01:00N 30°13' W 093°15'0 0.0
2018-Feb-15 00:30N 30°13' W 093°15'0 0.0
2018-Feb-15 00:00N 30°13' W 093°15'0 0.0
2018-Feb-14 23:30N 30°13' W 093°15'0 0.0
2018-Feb-14 23:00N 30°13' W 093°15'0 0.0
2018-Feb-14 22:30N 30°13' W 093°15'0 0.0
2018-Feb-14 22:00N 30°13' W 093°15'0 0.0
2018-Feb-14 21:30N 30°13' W 093°15'0 0.0
2018-Feb-14 21:00N 30°13' W 093°15'0 0.0
2018-Feb-14 20:30N 30°13' W 093°15'0 0.0
2018-Feb-14 20:00N 30°13' W 093°15'0 0.0
2018-Feb-14 19:30N 30°13' W 093°15'0 0.0
2018-Feb-14 19:00N 30°13' W 093°15'0 0.0
2018-Feb-14 18:30N 30°13' W 093°15'0 0.0
2018-Feb-14 18:00N 30°13' W 093°15'0 0.0
2018-Feb-14 17:30N 30°13' W 093°15'0 0.0
2018-Feb-14 17:00N 30°13' W 093°15'0 0.0
2018-Feb-14 16:30N 30°13' W 093°15'0 0.0
2018-Feb-14 16:00N 30°13' W 093°15'0 0.0
2018-Feb-14 15:30N 30°13' W 093°15'0 0.0
2018-Feb-14 15:00N 30°13' W 093°15'0 0.0
2018-Feb-14 14:30N 30°13' W 093°15'0 0.0
2018-Feb-14 14:00N 30°13' W 093°15'0 0.0
2018-Feb-14 13:30N 30°13' W 093°15'0 0.0
2018-Feb-14 13:00N 30°13' W 093°15'0 0.0
2018-Feb-14 12:30N 30°13' W 093°15'0 0.0
2018-Feb-14 12:00N 30°13' W 093°15'0 0.0
2018-Feb-14 11:30N 30°13' W 093°15'0 0.0
2018-Feb-14 11:00N 30°13' W 093°15'0 0.0
2018-Feb-14 10:30N 30°13' W 093°15'0 0.0
2018-Feb-14 10:00N 30°13' W 093°15'0 0.0
2018-Feb-14 09:30N 30°13' W 093°15'0 0.0
2018-Feb-14 09:00N 30°13' W 093°15'0 0.0
2018-Feb-14 08:30N 30°13' W 093°15'0 0.0
2018-Feb-14 08:00N 30°13' W 093°15'0 0.0
2018-Feb-14 07:30N 30°13' W 093°15'0 0.0
2018-Feb-14 07:00N 30°13' W 093°15'0 0.0
2018-Feb-14 06:30N 30°13' W 093°15'0 0.0
2018-Feb-14 06:00N 30°13' W 093°15'0 0.0
2018-Feb-14 05:30N 30°13' W 093°15'0 0.0
2018-Feb-14 05:00N 30°13' W 093°15'0 0.0
2018-Feb-14 04:30N 30°13' W 093°15'0 0.0
2018-Feb-14 04:00N 30°13' W 093°15'0 0.0
2018-Feb-14 03:30N 30°13' W 093°15'0 0.0
2018-Feb-14 03:00N 30°13' W 093°15'0 0.0
2018-Feb-14 02:30N 30°13' W 093°15'0 0.0
2018-Feb-14 02:00N 30°13' W 093°15'0 0.0
2018-Feb-14 01:30N 30°13' W 093°15'0 0.0
2018-Feb-14 01:00N 30°13' W 093°15'0 0.0
2018-Feb-14 00:30N 30°13' W 093°15'0 0.0
2018-Feb-14 00:00N 30°13' W 093°15'0 0.0
2018-Feb-13 23:30N 30°13' W 093°15'0 0.0
2018-Feb-13 23:00N 30°13' W 093°15'0 0.0
2018-Feb-13 22:30N 30°13' W 093°15'0 0.0
2018-Feb-13 22:00N 30°13' W 093°15'0 0.0
2018-Feb-13 21:30N 30°13' W 093°15'0 0.0
2018-Feb-13 21:00N 30°13' W 093°15'0 0.0
2018-Feb-13 20:30N 30°13' W 093°15'2 3.4
2018-Feb-13 20:00N 30°12' W 093°17'4 7.3
2018-Feb-13 19:30N 30°09' W 093°20'0 0.0
2018-Feb-13 19:00N 30°09' W 093°20'0 0.0
2018-Feb-13 18:30N 30°09' W 093°20'0 0.0
2018-Feb-13 18:00N 30°09' W 093°20'0 0.4
2018-Feb-13 17:30N 30°09' W 093°20'2 3.9
2018-Feb-13 17:00N 30°11' W 093°19'2 4.7
2018-Feb-13 16:31N 30°13' W 093°17'1 1.6
2018-Feb-13 15:57N 30°13' W 093°17'1 2.5
2018-Feb-13 15:30N 30°12' W 093°17'1 2.7
2018-Feb-13 15:00N 30°13' W 093°15'0 0.0
2018-Feb-13 14:29N 30°13' W 093°15'0 0.0
2018-Feb-13 14:00N 30°13' W 093°15'0 0.0
2018-Feb-13 13:30N 30°13' W 093°15'0 0.0
2018-Feb-13 13:00N 30°13' W 093°15'0 0.0
2018-Feb-13 12:30N 30°13' W 093°15'0 0.0
2018-Feb-13 12:00N 30°13' W 093°15'0 0.0
2018-Feb-13 11:26N 30°13' W 093°15'0 0.0
2018-Feb-13 11:00N 30°13' W 093°15'0 0.0
2018-Feb-13 10:30N 30°13' W 093°15'0 0.0
2018-Feb-13 10:00N 30°13' W 093°15'0 0.0
2018-Feb-13 09:30N 30°13' W 093°15'0 0.0
2018-Feb-13 08:58N 30°13' W 093°15'0 0.0
2018-Feb-13 08:30N 30°13' W 093°15'0 0.0
2018-Feb-13 07:58N 30°13' W 093°15'0 0.0
2018-Feb-13 07:28N 30°13' W 093°15'0 0.0
2018-Feb-13 07:00N 30°13' W 093°15'0 0.0
2018-Feb-13 06:30N 30°13' W 093°15'0 0.0
2018-Feb-13 06:00N 30°13' W 093°15'0 0.0
2018-Feb-13 05:28N 30°13' W 093°15'0 0.0
2018-Feb-13 05:00N 30°13' W 093°15'0 0.0
2018-Feb-13 04:30N 30°13' W 093°15'0 0.0
2018-Feb-13 04:00N 30°13' W 093°15'0 0.0
2018-Feb-13 03:30N 30°13' W 093°15'3 5.6
2018-Feb-13 03:00N 30°11' W 093°18'1 0.5
2018-Feb-13 00:23N 30°10' W 093°19'0 0.1
2018-Feb-13 00:01N 30°11' W 093°19'4 8.1
2018-Feb-12 23:30N 30°13' W 093°15'0 0.0
2018-Feb-12 23:00N 30°13' W 093°15'1 2.8
2018-Feb-12 22:30N 30°12' W 093°17'1 2.2
2018-Feb-12 22:01N 30°13' W 093°17'0 0.7
2018-Feb-12 21:29N 30°13' W 093°17'2 3.5
2018-Feb-12 20:55N 30°11' W 093°18'0 0.0
2018-Feb-12 20:27N 30°11' W 093°18'3 6.2
2018-Feb-12 20:00N 30°13' W 093°15'0 0.2
2018-Feb-12 19:24N 30°13' W 093°15'0 0.0
2018-Feb-12 19:01N 30°13' W 093°15'0 0.0
2018-Feb-12 18:30N 30°13' W 093°15'0 0.0
2018-Feb-12 18:00N 30°13' W 093°15'0 0.0
2018-Feb-12 17:29N 30°13' W 093°15'0 0.0
2018-Feb-12 17:00N 30°13' W 093°15'0 0.0
2018-Feb-12 16:29N 30°13' W 093°15'0 0.0
2018-Feb-12 16:01N 30°13' W 093°15'0 0.0
2018-Feb-12 15:17N 30°13' W 093°15'0 0.0
2018-Feb-12 14:58N 30°13' W 093°15'0 0.0
2018-Feb-12 14:29N 30°13' W 093°15'0 0.0
2018-Feb-12 14:01N 30°13' W 093°15'0 0.0
2018-Feb-12 13:31N 30°13' W 093°15'0 0.0
2018-Feb-12 13:00N 30°13' W 093°15'0 0.0
2018-Feb-12 12:31N 30°13' W 093°15'0 0.0
2018-Feb-12 11:59N 30°13' W 093°15'0 0.0
2018-Feb-12 11:27N 30°13' W 093°15'0 0.0
2018-Feb-12 10:59N 30°13' W 093°15'0 0.0
2018-Feb-12 10:30N 30°13' W 093°15'0 0.0
2018-Feb-12 09:55N 30°13' W 093°15'0 0.0
2018-Feb-12 09:25N 30°13' W 093°15'0 0.0
2018-Feb-12 09:00N 30°13' W 093°15'0 0.0
2018-Feb-12 08:29N 30°13' W 093°15'0 0.0
2018-Feb-12 08:00N 30°13' W 093°15'0 0.0
2018-Feb-12 07:31N 30°13' W 093°15'0 0.0
2018-Feb-12 06:59N 30°13' W 093°15'0 0.0
2018-Feb-12 06:30N 30°13' W 093°15'0 0.0
2018-Feb-12 05:55N 30°13' W 093°15'0 0.0
2018-Feb-12 05:30N 30°13' W 093°15'0 0.0
2018-Feb-12 04:57N 30°13' W 093°15'0 0.0
2018-Feb-12 04:27N 30°13' W 093°15'0 0.0
2018-Feb-12 03:56N 30°13' W 093°15'0 0.0
2018-Feb-12 03:30N 30°13' W 093°15'0 0.0
2018-Feb-12 02:59N 30°13' W 093°15'0 0.0
2018-Feb-12 02:29N 30°13' W 093°15'0 0.0
2018-Feb-12 02:00N 30°13' W 093°15'1 1.6
2018-Feb-12 01:30N 30°12' W 093°16'1 1.9
2018-Feb-12 01:01N 30°13' W 093°17'1 2.7
2018-Feb-12 00:31N 30°13' W 093°15'0 0.0
2018-Feb-12 00:00N 30°13' W 093°15'3 6.0
2018-Feb-11 23:31N 30°11' W 093°18'0 0.7
2018-Feb-11 23:01N 30°11' W 093°19'0 0.0
2018-Feb-11 22:30N 30°11' W 093°19'1 2.2
2018-Feb-11 22:01N 30°10' W 093°19'0 0.4
2018-Feb-11 21:18N 30°10' W 093°19'3 8.4
2018-Feb-11 20:55N 30°12' W 093°17'2 3.8
2018-Feb-11 20:30N 30°13' W 093°15'0 0.0
2018-Feb-11 20:01N 30°13' W 093°15'0 0.0
2018-Feb-11 19:27N 30°13' W 093°15'0 0.0
2018-Feb-11 19:01N 30°13' W 093°15'0 0.0
2018-Feb-11 18:31N 30°13' W 093°15'0 0.0
2018-Feb-11 18:01N 30°13' W 093°15'0 0.0
2018-Feb-11 17:30N 30°13' W 093°15'0 0.0
2018-Feb-11 17:00N 30°13' W 093°15'0 0.0
2018-Feb-11 16:31N 30°13' W 093°15'0 0.0
2018-Feb-11 16:01N 30°13' W 093°15'0 0.0
2018-Feb-11 15:31N 30°13' W 093°15'0 0.0
2018-Feb-11 15:01N 30°13' W 093°15'0 0.0
2018-Feb-11 14:31N 30°13' W 093°15'0 0.0
2018-Feb-11 14:01N 30°13' W 093°15'0 0.0
2018-Feb-11 13:30N 30°13' W 093°15'0 0.0
2018-Feb-11 13:00N 30°13' W 093°15'0 0.0
2018-Feb-11 12:31N 30°13' W 093°15'0 0.0
2018-Feb-11 12:00N 30°13' W 093°15'0 0.0
2018-Feb-11 11:31N 30°13' W 093°15'0 0.0
2018-Feb-11 11:01N 30°13' W 093°15'0 0.0
2018-Feb-11 10:29N 30°13' W 093°15'0 0.0
2018-Feb-11 10:01N 30°13' W 093°15'0 0.0
2018-Feb-11 09:31N 30°13' W 093°15'0 0.0
2018-Feb-11 09:01N 30°13' W 093°15'0 0.0
2018-Feb-11 08:30N 30°13' W 093°15'0 0.0
2018-Feb-11 08:00N 30°13' W 093°15'0 0.0
2018-Feb-11 07:31N 30°13' W 093°15'0 0.0
2018-Feb-11 07:01N 30°13' W 093°15'0 0.0
2018-Feb-11 06:30N 30°13' W 093°15'0 0.0
2018-Feb-11 06:00N 30°13' W 093°15'0 0.0
2018-Feb-11 05:31N 30°13' W 093°15'0 0.0
2018-Feb-11 05:01N 30°13' W 093°15'0 0.0
2018-Feb-11 04:30N 30°13' W 093°15'0 0.0
2018-Feb-11 04:01N 30°13' W 093°15'0 0.0
2018-Feb-11 03:30N 30°13' W 093°15'0 0.0
2018-Feb-11 03:01N 30°13' W 093°15'0 0.0
2018-Feb-11 02:30N 30°13' W 093°15'0 0.0
2018-Feb-11 02:00N 30°13' W 093°15'0 0.0
2018-Feb-11 01:30N 30°13' W 093°15'0 0.0
2018-Feb-11 01:00N 30°13' W 093°15'0 0.0
2018-Feb-11 00:17N 30°13' W 093°15'0 0.0
2018-Feb-10 23:55N 30°13' W 093°15'0 0.0
2018-Feb-10 23:25N 30°13' W 093°15'0 0.0
2018-Feb-10 23:00N 30°13' W 093°15'0 0.0
2018-Feb-10 22:27N 30°13' W 093°15'0 0.0
2018-Feb-10 22:00N 30°13' W 093°15'0 0.0
2018-Feb-10 21:29N 30°13' W 093°15'0 0.0
2018-Feb-10 21:00N 30°13' W 093°15'0 0.0
2018-Feb-10 20:30N 30°13' W 093°15'0 0.0
2018-Feb-10 20:01N 30°13' W 093°15'0 0.0
2018-Feb-10 19:31N 30°13' W 093°15'0 0.0
2018-Feb-10 19:01N 30°13' W 093°15'0 0.0
2018-Feb-10 18:31N 30°13' W 093°15'0 0.0
2018-Feb-10 18:01N 30°13' W 093°15'0 0.0
2018-Feb-10 17:29N 30°13' W 093°15'0 0.0
2018-Feb-10 17:01N 30°13' W 093°15'0 0.0
2018-Feb-10 16:31N 30°13' W 093°15'0 0.0
2018-Feb-10 16:01N 30°13' W 093°15'0 0.0
2018-Feb-10 15:31N 30°13' W 093°15'0 0.0
2018-Feb-10 15:01N 30°13' W 093°15'0 0.0
2018-Feb-10 14:30N 30°13' W 093°15'0 0.0
2018-Feb-10 14:00N 30°13' W 093°15'0 0.0
2018-Feb-10 13:31N 30°13' W 093°15'0 0.0
2018-Feb-10 13:00N 30°13' W 093°15'0 0.0
2018-Feb-10 12:30N 30°13' W 093°15'0 0.0
2018-Feb-10 12:01N 30°13' W 093°15'0 0.0
2018-Feb-10 11:31N 30°13' W 093°15'0 0.0
2018-Feb-10 11:00N 30°13' W 093°15'0 0.0
2018-Feb-10 10:29N 30°13' W 093°15'0 0.0
2018-Feb-10 10:00N 30°13' W 093°15'0 0.0
2018-Feb-10 09:31N 30°13' W 093°15'0 0.0
2018-Feb-10 09:01N 30°13' W 093°15'0 0.0
2018-Feb-10 08:30N 30°13' W 093°15'0 0.0
2018-Feb-10 08:01N 30°13' W 093°15'0 0.0
2018-Feb-10 07:30N 30°13' W 093°15'0 0.0
2018-Feb-10 07:01N 30°13' W 093°15'0 0.0
2018-Feb-10 06:31N 30°13' W 093°15'0 0.0
2018-Feb-10 06:01N 30°13' W 093°15'0 0.0
2018-Feb-10 05:30N 30°13' W 093°15'0 0.0
2018-Feb-10 05:01N 30°13' W 093°15'0 0.0
2018-Feb-10 04:31N 30°13' W 093°15'0 0.0
2018-Feb-10 04:01N 30°13' W 093°15'0 0.0
2018-Feb-10 03:31N 30°13' W 093°15'0 0.0
2018-Feb-10 03:01N 30°13' W 093°15'0 0.0
2018-Feb-10 02:31N 30°13' W 093°15'0 0.0
2018-Feb-10 02:00N 30°13' W 093°15'0 0.0
2018-Feb-10 01:31N 30°13' W 093°15'0 0.0
2018-Feb-10 01:01N 30°13' W 093°15'4 0.2
2018-Feb-09 06:31N 30°10' W 093°19'  
Track history (hours):
 
Tides and Currents Weather Stations Pressure Air Temp Water Temp Dewpoint Dewpoint Depression Visibility Wind Speed Wind Dir Waves Ship Positions

Allan

Owner: HARBOR DOCKING & TOWING CO, Houston, TX. More information available from US FCC via Universal Licensing System and Coast Guard Vessel Documentation Center.

Last reported at 2018-Feb-19 06:00 UTC. Time now 2018-Feb-19 06:12 UTC.
Position N 30°13' W 093°15'.

Length 35 m.

Type: Tug. MMSI: 366971270.

Date/timePositionNaut miles runAvg speedWind from/ knotsBaromVisibWave heightAir tempDewpointWater temp
2018-Feb-19 06:00N 30°13' W 093°15'0 0.0
2018-Feb-19 05:30N 30°13' W 093°15'0 0.0
2018-Feb-19 05:00N 30°13' W 093°15'0 0.0
2018-Feb-19 04:30N 30°13' W 093°15'0 0.0
2018-Feb-19 04:00N 30°13' W 093°15'0 0.0
2018-Feb-19 03:29N 30°13' W 093°15'0 0.0
2018-Feb-19 03:00N 30°13' W 093°15'0 0.0
2018-Feb-19 02:30N 30°13' W 093°15'0 0.0
2018-Feb-19 02:00N 30°13' W 093°15'0 0.0
2018-Feb-19 01:30N 30°13' W 093°15'0 0.0
2018-Feb-19 01:00N 30°13' W 093°15'0 0.0
2018-Feb-19 00:30N 30°13' W 093°15'0 0.0
2018-Feb-19 00:00N 30°13' W 093°15'0 0.0
2018-Feb-18 23:30N 30°13' W 093°15'0 0.0
2018-Feb-18 23:00N 30°13' W 093°15'0 0.0
2018-Feb-18 22:30N 30°13' W 093°15'0 0.0
2018-Feb-18 22:00N 30°13' W 093°15'0 0.0
2018-Feb-18 21:30N 30°13' W 093°15'0 0.0
2018-Feb-18 21:00N 30°13' W 093°15'1 1.1
2018-Feb-18 20:30N 30°13' W 093°15'0 0.3
2018-Feb-18 20:00N 30°13' W 093°15'1 1.2
2018-Feb-18 19:30N 30°13' W 093°15'0 0.0
2018-Feb-18 19:00N 30°13' W 093°15'0 0.6
2018-Feb-18 18:30N 30°13' W 093°16'4 7.7
2018-Feb-18 18:00N 30°10' W 093°19'1 1.3
2018-Feb-18 17:30N 30°11' W 093°19'3 5.9
2018-Feb-18 17:00N 30°12' W 093°16'1 2.4
2018-Feb-18 16:30N 30°14' W 093°16'1 1.1
2018-Feb-18 16:00N 30°14' W 093°15'1 2.3
2018-Feb-18 15:30N 30°13' W 093°15'0 0.5
2018-Feb-18 15:00N 30°13' W 093°15'0 0.0
2018-Feb-18 14:30N 30°13' W 093°15'0 0.0
2018-Feb-18 14:00N 30°13' W 093°15'0 0.0
2018-Feb-18 13:31N 30°13' W 093°15'0 0.0
2018-Feb-18 13:00N 30°13' W 093°15'0 0.0
2018-Feb-18 12:30N 30°13' W 093°15'0 0.0
2018-Feb-18 12:00N 30°13' W 093°15'0 0.0
2018-Feb-18 11:30N 30°13' W 093°15'0 0.0
2018-Feb-18 11:00N 30°13' W 093°15'0 0.0
2018-Feb-18 10:31N 30°13' W 093°15'0 0.0
2018-Feb-18 10:00N 30°13' W 093°15'0 0.0
2018-Feb-18 09:30N 30°13' W 093°15'0 0.0
2018-Feb-18 09:00N 30°13' W 093°15'0 0.0
2018-Feb-18 08:30N 30°13' W 093°15'0 0.0
2018-Feb-18 08:00N 30°13' W 093°15'0 0.0
2018-Feb-18 07:30N 30°13' W 093°15'0 0.0
2018-Feb-18 07:00N 30°13' W 093°15'0 0.0
2018-Feb-18 06:30N 30°13' W 093°15'0 0.0
2018-Feb-18 06:01N 30°13' W 093°15'0 0.0
2018-Feb-18 05:30N 30°13' W 093°15'0 0.0
2018-Feb-18 05:00N 30°13' W 093°15'0 0.0
2018-Feb-18 04:30N 30°13' W 093°15'0 0.0
2018-Feb-18 04:00N 30°13' W 093°15'0 0.0
2018-Feb-18 03:30N 30°13' W 093°15'0 0.0
2018-Feb-18 03:00N 30°13' W 093°15'0 0.0
2018-Feb-18 02:30N 30°13' W 093°15'0 0.0
2018-Feb-18 02:00N 30°13' W 093°15'0 0.0
2018-Feb-18 01:30N 30°13' W 093°15'0 0.0
2018-Feb-18 01:00N 30°13' W 093°15'0 0.0
2018-Feb-18 00:30N 30°13' W 093°15'0 0.0
2018-Feb-18 00:00N 30°13' W 093°15'0 0.0
2018-Feb-17 23:30N 30°13' W 093°15'0 0.0
2018-Feb-17 23:00N 30°13' W 093°15'0 0.0
2018-Feb-17 22:30N 30°13' W 093°15'0 0.0
2018-Feb-17 22:00N 30°13' W 093°15'0 0.0
2018-Feb-17 21:30N 30°13' W 093°15'0 0.6
2018-Feb-17 21:00N 30°13' W 093°15'0 0.4
2018-Feb-17 20:30N 30°13' W 093°16'1 2.0
2018-Feb-17 20:00N 30°12' W 093°17'1 2.9
2018-Feb-17 19:30N 30°13' W 093°15'0 0.0
2018-Feb-17 19:00N 30°13' W 093°15'0 0.0
2018-Feb-17 18:30N 30°13' W 093°15'0 0.0
2018-Feb-17 18:00N 30°13' W 093°15'0 0.0
2018-Feb-17 17:30N 30°13' W 093°15'0 0.0
2018-Feb-17 17:00N 30°13' W 093°15'0 0.0
2018-Feb-17 16:31N 30°13' W 093°15'0 0.0
2018-Feb-17 16:00N 30°13' W 093°15'0 0.0
2018-Feb-17 15:30N 30°13' W 093°15'0 0.0
2018-Feb-17 15:00N 30°13' W 093°15'0 0.0
2018-Feb-17 14:30N 30°13' W 093°15'0 0.0
2018-Feb-17 14:00N 30°13' W 093°15'0 0.0
2018-Feb-17 13:30N 30°13' W 093°15'0 0.0
2018-Feb-17 13:00N 30°13' W 093°15'0 0.0
2018-Feb-17 12:30N 30°13' W 093°15'0 0.0
2018-Feb-17 12:00N 30°13' W 093°15'0 0.0
2018-Feb-17 11:30N 30°13' W 093°15'0 0.0
2018-Feb-17 11:00N 30°13' W 093°15'0 0.0
2018-Feb-17 10:31N 30°13' W 093°15'0 0.0
2018-Feb-17 10:00N 30°13' W 093°15'0 0.0
2018-Feb-17 09:30N 30°13' W 093°15'0 0.0
2018-Feb-17 09:00N 30°13' W 093°15'0 0.0
2018-Feb-17 08:30N 30°13' W 093°15'0 0.0
2018-Feb-17 08:00N 30°13' W 093°15'0 0.0
2018-Feb-17 07:30N 30°13' W 093°15'0 0.0
2018-Feb-17 07:00N 30°13' W 093°15'0 0.0
2018-Feb-17 06:30N 30°13' W 093°15'0 0.0
2018-Feb-17 06:00N 30°13' W 093°15'0 0.0
2018-Feb-17 05:30N 30°13' W 093°15'0 0.0
2018-Feb-17 05:00N 30°13' W 093°15'0 0.0
2018-Feb-17 04:30N 30°13' W 093°15'0 0.0
2018-Feb-17 04:00N 30°13' W 093°15'0 0.0
2018-Feb-17 03:30N 30°13' W 093°15'0 0.0
2018-Feb-17 03:00N 30°13' W 093°15'0 0.0
2018-Feb-17 02:30N 30°13' W 093°15'0 0.0
2018-Feb-17 02:00N 30°13' W 093°15'0 0.0
2018-Feb-17 01:28N 30°13' W 093°15'0 0.0
2018-Feb-17 01:01N 30°13' W 093°15'0 0.0
2018-Feb-17 00:30N 30°13' W 093°15'0 0.0
2018-Feb-17 00:00N 30°13' W 093°15'0 0.0
2018-Feb-16 23:22N 30°13' W 093°15'0 0.0
2018-Feb-16 23:00N 30°13' W 093°15'0 0.0
2018-Feb-16 22:30N 30°13' W 093°15'0 0.0
2018-Feb-16 22:00N 30°13' W 093°15'0 0.0
2018-Feb-16 21:30N 30°13' W 093°15'0 0.0
2018-Feb-16 21:00N 30°13' W 093°15'0 0.0
2018-Feb-16 20:30N 30°13' W 093°15'0 0.0
2018-Feb-16 20:00N 30°13' W 093°15'0 0.0
2018-Feb-16 19:30N 30°13' W 093°15'0 0.0
2018-Feb-16 19:00N 30°13' W 093°15'0 0.0
2018-Feb-16 18:29N 30°13' W 093°15'0 0.0
2018-Feb-16 18:00N 30°13' W 093°15'0 0.0
2018-Feb-16 17:30N 30°13' W 093°15'0 0.0
2018-Feb-16 17:00N 30°13' W 093°15'0 0.0
2018-Feb-16 16:30N 30°13' W 093°15'0 0.0
2018-Feb-16 16:00N 30°13' W 093°15'0 0.0
2018-Feb-16 15:30N 30°13' W 093°15'0 0.0
2018-Feb-16 15:00N 30°13' W 093°15'0 0.0
2018-Feb-16 14:30N 30°13' W 093°15'0 0.0
2018-Feb-16 14:00N 30°13' W 093°15'0 0.0
2018-Feb-16 13:30N 30°13' W 093°15'0 0.0
2018-Feb-16 13:00N 30°13' W 093°15'0 0.0
2018-Feb-16 12:30N 30°13' W 093°15'0 0.0
2018-Feb-16 12:00N 30°13' W 093°15'0 0.0
2018-Feb-16 11:30N 30°13' W 093°15'0 0.0
2018-Feb-16 11:00N 30°13' W 093°15'0 0.0
2018-Feb-16 10:30N 30°13' W 093°15'0 0.0
2018-Feb-16 10:00N 30°13' W 093°15'0 0.0
2018-Feb-16 09:30N 30°13' W 093°15'0 0.0
2018-Feb-16 09:00N 30°13' W 093°15'0 0.0
2018-Feb-16 08:30N 30°13' W 093°15'0 0.0
2018-Feb-16 08:00N 30°13' W 093°15'0 0.0
2018-Feb-16 07:30N 30°13' W 093°15'0 0.0
2018-Feb-16 07:00N 30°13' W 093°15'0 0.0
2018-Feb-16 06:30N 30°13' W 093°15'0 0.0
2018-Feb-16 06:00N 30°13' W 093°15'0 0.0
2018-Feb-16 05:30N 30°13' W 093°15'0 0.0
2018-Feb-16 05:00N 30°13' W 093°15'0 0.0
2018-Feb-16 04:30N 30°13' W 093°15'0 0.0
2018-Feb-16 04:00N 30°13' W 093°15'0 0.0
2018-Feb-16 03:30N 30°13' W 093°15'0 0.0
2018-Feb-16 03:00N 30°13' W 093°15'0 0.0
2018-Feb-16 02:30N 30°13' W 093°15'0 0.0
2018-Feb-16 02:00N 30°13' W 093°15'0 0.0
2018-Feb-16 01:30N 30°13' W 093°15'0 0.0
2018-Feb-16 01:00N 30°13' W 093°15'0 0.0
2018-Feb-16 00:28N 30°13' W 093°15'0 0.0
2018-Feb-15 23:56N 30°13' W 093°15'0 0.0
2018-Feb-15 23:30N 30°13' W 093°15'0 0.0
2018-Feb-15 23:00N 30°13' W 093°15'0 0.0
2018-Feb-15 22:30N 30°13' W 093°15'0 0.0
2018-Feb-15 22:00N 30°13' W 093°15'0 0.0
2018-Feb-15 21:30N 30°13' W 093°15'0 0.0
2018-Feb-15 21:00N 30°13' W 093°15'0 0.0
2018-Feb-15 20:30N 30°13' W 093°15'0 0.0
2018-Feb-15 20:00N 30°13' W 093°15'0 0.0
2018-Feb-15 19:30N 30°13' W 093°15'0 0.0
2018-Feb-15 19:00N 30°13' W 093°15'0 0.0
2018-Feb-15 18:30N 30°13' W 093°15'0 0.0
2018-Feb-15 18:00N 30°13' W 093°15'0 0.0
2018-Feb-15 17:30N 30°13' W 093°15'0 0.0
2018-Feb-15 17:00N 30°13' W 093°15'0 0.0
2018-Feb-15 16:30N 30°13' W 093°15'0 0.0
2018-Feb-15 16:00N 30°13' W 093°15'0 0.0
2018-Feb-15 15:30N 30°13' W 093°15'0 0.0
2018-Feb-15 15:00N 30°13' W 093°15'0 0.0
2018-Feb-15 14:30N 30°13' W 093°15'0 0.0
2018-Feb-15 14:00N 30°13' W 093°15'0 0.0
2018-Feb-15 13:30N 30°13' W 093°15'0 0.0
2018-Feb-15 13:00N 30°13' W 093°15'0 0.0
2018-Feb-15 12:30N 30°13' W 093°15'0 0.0
2018-Feb-15 12:00N 30°13' W 093°15'0 0.0
2018-Feb-15 11:30N 30°13' W 093°15'0 0.0
2018-Feb-15 11:00N 30°13' W 093°15'0 0.0
2018-Feb-15 10:30N 30°13' W 093°15'0 0.0
2018-Feb-15 10:00N 30°13' W 093°15'0 0.0
2018-Feb-15 09:30N 30°13' W 093°15'0 0.0
2018-Feb-15 09:00N 30°13' W 093°15'0 0.0
2018-Feb-15 08:30N 30°13' W 093°15'0 0.0
2018-Feb-15 08:00N 30°13' W 093°15'0 0.0
2018-Feb-15 07:30N 30°13' W 093°15'0 0.0
2018-Feb-15 07:00N 30°13' W 093°15'0 0.0
2018-Feb-15 06:30N 30°13' W 093°15'0 0.0
2018-Feb-15 06:00N 30°13' W 093°15'0 0.0
2018-Feb-15 05:30N 30°13' W 093°15'0 0.0
2018-Feb-15 05:00N 30°13' W 093°15'0 0.0
2018-Feb-15 04:30N 30°13' W 093°15'0 0.0
2018-Feb-15 04:00N 30°13' W 093°15'0 0.0
2018-Feb-15 03:30N 30°13' W 093°15'0 0.0
2018-Feb-15 03:00N 30°13' W 093°15'0 0.0
2018-Feb-15 02:22N 30°13' W 093°15'0 0.0
2018-Feb-15 02:00N 30°13' W 093°15'0 0.0
2018-Feb-15 01:30N 30°13' W 093°15'0 0.0
2018-Feb-15 01:00N 30°13' W 093°15'0 0.0
2018-Feb-15 00:30N 30°13' W 093°15'0 0.0
2018-Feb-15 00:00N 30°13' W 093°15'0 0.0
2018-Feb-14 23:30N 30°13' W 093°15'0 0.0
2018-Feb-14 23:00N 30°13' W 093°15'0 0.0
2018-Feb-14 22:30N 30°13' W 093°15'0 0.0
2018-Feb-14 22:00N 30°13' W 093°15'0 0.0
2018-Feb-14 21:30N 30°13' W 093°15'0 0.0
2018-Feb-14 21:00N 30°13' W 093°15'0 0.0
2018-Feb-14 20:30N 30°13' W 093°15'0 0.0
2018-Feb-14 20:00N 30°13' W 093°15'0 0.0
2018-Feb-14 19:30N 30°13' W 093°15'0 0.0
2018-Feb-14 19:00N 30°13' W 093°15'0 0.0
2018-Feb-14 18:30N 30°13' W 093°15'0 0.0
2018-Feb-14 18:00N 30°13' W 093°15'0 0.0
2018-Feb-14 17:30N 30°13' W 093°15'0 0.0
2018-Feb-14 17:00N 30°13' W 093°15'0 0.0
2018-Feb-14 16:30N 30°13' W 093°15'0 0.0
2018-Feb-14 16:00N 30°13' W 093°15'0 0.0
2018-Feb-14 15:30N 30°13' W 093°15'0 0.0
2018-Feb-14 15:00N 30°13' W 093°15'0 0.0
2018-Feb-14 14:30N 30°13' W 093°15'0 0.0
2018-Feb-14 14:00N 30°13' W 093°15'0 0.0
2018-Feb-14 13:30N 30°13' W 093°15'0 0.0
2018-Feb-14 13:00N 30°13' W 093°15'0 0.0
2018-Feb-14 12:30N 30°13' W 093°15'0 0.0
2018-Feb-14 12:00N 30°13' W 093°15'0 0.0
2018-Feb-14 11:30N 30°13' W 093°15'0 0.0
2018-Feb-14 11:00N 30°13' W 093°15'0 0.0
2018-Feb-14 10:30N 30°13' W 093°15'0 0.0
2018-Feb-14 10:00N 30°13' W 093°15'0 0.0
2018-Feb-14 09:30N 30°13' W 093°15'0 0.0
2018-Feb-14 09:00N 30°13' W 093°15'0 0.0
2018-Feb-14 08:30N 30°13' W 093°15'0 0.0
2018-Feb-14 08:00N 30°13' W 093°15'0 0.0
2018-Feb-14 07:30N 30°13' W 093°15'0 0.0
2018-Feb-14 07:00N 30°13' W 093°15'0 0.0
2018-Feb-14 06:30N 30°13' W 093°15'0 0.0
2018-Feb-14 06:00N 30°13' W 093°15'0 0.0
2018-Feb-14 05:30N 30°13' W 093°15'0 0.0
2018-Feb-14 05:00N 30°13' W 093°15'0 0.0
2018-Feb-14 04:30N 30°13' W 093°15'0 0.0
2018-Feb-14 04:00N 30°13' W 093°15'0 0.0
2018-Feb-14 03:30N 30°13' W 093°15'0 0.0
2018-Feb-14 03:00N 30°13' W 093°15'0 0.0
2018-Feb-14 02:30N 30°13' W 093°15'0 0.0
2018-Feb-14 02:00N 30°13' W 093°15'0 0.0
2018-Feb-14 01:30N 30°13' W 093°15'0 0.0
2018-Feb-14 01:00N 30°13' W 093°15'0 0.0
2018-Feb-14 00:30N 30°13' W 093°15'0 0.0
2018-Feb-14 00:00N 30°13' W 093°15'0 0.0
2018-Feb-13 23:30N 30°13' W 093°15'0 0.0
2018-Feb-13 23:00N 30°13' W 093°15'0 0.0
2018-Feb-13 22:30N 30°13' W 093°15'0 0.0
2018-Feb-13 22:00N 30°13' W 093°15'0 0.0
2018-Feb-13 21:30N 30°13' W 093°15'0 0.0
2018-Feb-13 21:00N 30°13' W 093°15'0 0.0
2018-Feb-13 20:30N 30°13' W 093°15'2 3.4
2018-Feb-13 20:00N 30°12' W 093°17'4 7.3
2018-Feb-13 19:30N 30°09' W 093°20'0 0.0
2018-Feb-13 19:00N 30°09' W 093°20'0 0.0
2018-Feb-13 18:30N 30°09' W 093°20'0 0.0
2018-Feb-13 18:00N 30°09' W 093°20'0 0.4
2018-Feb-13 17:30N 30°09' W 093°20'2 3.9
2018-Feb-13 17:00N 30°11' W 093°19'2 4.7
2018-Feb-13 16:31N 30°13' W 093°17'1 1.6
2018-Feb-13 15:57N 30°13' W 093°17'1 2.5
2018-Feb-13 15:30N 30°12' W 093°17'1 2.7
2018-Feb-13 15:00N 30°13' W 093°15'0 0.0
2018-Feb-13 14:29N 30°13' W 093°15'0 0.0
2018-Feb-13 14:00N 30°13' W 093°15'0 0.0
2018-Feb-13 13:30N 30°13' W 093°15'0 0.0
2018-Feb-13 13:00N 30°13' W 093°15'0 0.0
2018-Feb-13 12:30N 30°13' W 093°15'0 0.0
2018-Feb-13 12:00N 30°13' W 093°15'0 0.0
2018-Feb-13 11:26N 30°13' W 093°15'0 0.0
2018-Feb-13 11:00N 30°13' W 093°15'0 0.0
2018-Feb-13 10:30N 30°13' W 093°15'0 0.0
2018-Feb-13 10:00N 30°13' W 093°15'0 0.0
2018-Feb-13 09:30N 30°13' W 093°15'0 0.0
2018-Feb-13 08:58N 30°13' W 093°15'0 0.0
2018-Feb-13 08:30N 30°13' W 093°15'0 0.0
2018-Feb-13 07:58N 30°13' W 093°15'0 0.0
2018-Feb-13 07:28N 30°13' W 093°15'0 0.0
2018-Feb-13 07:00N 30°13' W 093°15'0 0.0
2018-Feb-13 06:30N 30°13' W 093°15'0 0.0
2018-Feb-13 06:00N 30°13' W 093°15'0 0.0
2018-Feb-13 05:28N 30°13' W 093°15'0 0.0
2018-Feb-13 05:00N 30°13' W 093°15'0 0.0
2018-Feb-13 04:30N 30°13' W 093°15'0 0.0
2018-Feb-13 04:00N 30°13' W 093°15'0 0.0
2018-Feb-13 03:30N 30°13' W 093°15'3 5.6
2018-Feb-13 03:00N 30°11' W 093°18'1 0.5
2018-Feb-13 00:23N 30°10' W 093°19'0 0.1
2018-Feb-13 00:01N 30°11' W 093°19'4 8.1
2018-Feb-12 23:30N 30°13' W 093°15'0 0.0
2018-Feb-12 23:00N 30°13' W 093°15'1 2.8
2018-Feb-12 22:30N 30°12' W 093°17'1 2.2
2018-Feb-12 22:01N 30°13' W 093°17'0 0.7
2018-Feb-12 21:29N 30°13' W 093°17'2 3.5
2018-Feb-12 20:55N 30°11' W 093°18'0 0.0
2018-Feb-12 20:27N 30°11' W 093°18'3 6.2
2018-Feb-12 20:00N 30°13' W 093°15'0 0.2
2018-Feb-12 19:24N 30°13' W 093°15'0 0.0
2018-Feb-12 19:01N 30°13' W 093°15'0 0.0
2018-Feb-12 18:30N 30°13' W 093°15'0 0.0
2018-Feb-12 18:00N 30°13' W 093°15'0 0.0
2018-Feb-12 17:29N 30°13' W 093°15'0 0.0
2018-Feb-12 17:00N 30°13' W 093°15'0 0.0
2018-Feb-12 16:29N 30°13' W 093°15'0 0.0
2018-Feb-12 16:01N 30°13' W 093°15'0 0.0
2018-Feb-12 15:17N 30°13' W 093°15'0 0.0
2018-Feb-12 14:58N 30°13' W 093°15'0 0.0
2018-Feb-12 14:29N 30°13' W 093°15'0 0.0
2018-Feb-12 14:01N 30°13' W 093°15'0 0.0
2018-Feb-12 13:31N 30°13' W 093°15'0 0.0
2018-Feb-12 13:00N 30°13' W 093°15'0 0.0
2018-Feb-12 12:31N 30°13' W 093°15'0 0.0
2018-Feb-12 11:59N 30°13' W 093°15'0 0.0
2018-Feb-12 11:27N 30°13' W 093°15'0 0.0
2018-Feb-12 10:59N 30°13' W 093°15'0 0.0
2018-Feb-12 10:30N 30°13' W 093°15'0 0.0
2018-Feb-12 09:55N 30°13' W 093°15'0 0.0
2018-Feb-12 09:25N 30°13' W 093°15'0 0.0
2018-Feb-12 09:00N 30°13' W 093°15'0 0.0
2018-Feb-12 08:29N 30°13' W 093°15'0 0.0
2018-Feb-12 08:00N 30°13' W 093°15'0 0.0
2018-Feb-12 07:31N 30°13' W 093°15'0 0.0
2018-Feb-12 06:59N 30°13' W 093°15'0 0.0
2018-Feb-12 06:30N 30°13' W 093°15'0 0.0
2018-Feb-12 05:55N 30°13' W 093°15'0 0.0
2018-Feb-12 05:30N 30°13' W 093°15'0 0.0
2018-Feb-12 04:57N 30°13' W 093°15'0 0.0
2018-Feb-12 04:27N 30°13' W 093°15'0 0.0
2018-Feb-12 03:56N 30°13' W 093°15'0 0.0
2018-Feb-12 03:30N 30°13' W 093°15'0 0.0
2018-Feb-12 02:59N 30°13' W 093°15'0 0.0
2018-Feb-12 02:29N 30°13' W 093°15'0 0.0
2018-Feb-12 02:00N 30°13' W 093°15'1 1.6
2018-Feb-12 01:30N 30°12' W 093°16'1 1.9
2018-Feb-12 01:01N 30°13' W 093°17'1 2.7
2018-Feb-12 00:31N 30°13' W 093°15'0 0.0
2018-Feb-12 00:00N 30°13' W 093°15'3 6.0
2018-Feb-11 23:31N 30°11' W 093°18'0 0.7
2018-Feb-11 23:01N 30°11' W 093°19'0 0.0
2018-Feb-11 22:30N 30°11' W 093°19'1 2.2
2018-Feb-11 22:01N 30°10' W 093°19'0 0.4
2018-Feb-11 21:18N 30°10' W 093°19'3 8.4
2018-Feb-11 20:55N 30°12' W 093°17'2 3.8
2018-Feb-11 20:30N 30°13' W 093°15'0 0.0
2018-Feb-11 20:01N 30°13' W 093°15'0 0.0
2018-Feb-11 19:27N 30°13' W 093°15'0 0.0
2018-Feb-11 19:01N 30°13' W 093°15'0 0.0
2018-Feb-11 18:31N 30°13' W 093°15'0 0.0
2018-Feb-11 18:01N 30°13' W 093°15'0 0.0
2018-Feb-11 17:30N 30°13' W 093°15'0 0.0
2018-Feb-11 17:00N 30°13' W 093°15'0 0.0
2018-Feb-11 16:31N 30°13' W 093°15'0 0.0
2018-Feb-11 16:01N 30°13' W 093°15'0 0.0
2018-Feb-11 15:31N 30°13' W 093°15'0 0.0
2018-Feb-11 15:01N 30°13' W 093°15'0 0.0
2018-Feb-11 14:31N 30°13' W 093°15'0 0.0
2018-Feb-11 14:01N 30°13' W 093°15'0 0.0
2018-Feb-11 13:30N 30°13' W 093°15'0 0.0
2018-Feb-11 13:00N 30°13' W 093°15'0 0.0
2018-Feb-11 12:31N 30°13' W 093°15'0 0.0
2018-Feb-11 12:00N 30°13' W 093°15'0 0.0
2018-Feb-11 11:31N 30°13' W 093°15'0 0.0
2018-Feb-11 11:01N 30°13' W 093°15'0 0.0
2018-Feb-11 10:29N 30°13' W 093°15'0 0.0
2018-Feb-11 10:01N 30°13' W 093°15'0 0.0
2018-Feb-11 09:31N 30°13' W 093°15'0 0.0
2018-Feb-11 09:01N 30°13' W 093°15'0 0.0
2018-Feb-11 08:30N 30°13' W 093°15'0 0.0
2018-Feb-11 08:00N 30°13' W 093°15'0 0.0
2018-Feb-11 07:31N 30°13' W 093°15'0 0.0
2018-Feb-11 07:01N 30°13' W 093°15'0 0.0
2018-Feb-11 06:30N 30°13' W 093°15'0 0.0
2018-Feb-11 06:00N 30°13' W 093°15'0 0.0
2018-Feb-11 05:31N 30°13' W 093°15'0 0.0
2018-Feb-11 05:01N 30°13' W 093°15'0 0.0
2018-Feb-11 04:30N 30°13' W 093°15'0 0.0
2018-Feb-11 04:01N 30°13' W 093°15'0 0.0
2018-Feb-11 03:30N 30°13' W 093°15'0 0.0
2018-Feb-11 03:01N 30°13' W 093°15'0 0.0
2018-Feb-11 02:30N 30°13' W 093°15'0 0.0
2018-Feb-11 02:00N 30°13' W 093°15'0 0.0
2018-Feb-11 01:30N 30°13' W 093°15'0 0.0
2018-Feb-11 01:00N 30°13' W 093°15'0 0.0
2018-Feb-11 00:17N 30°13' W 093°15'0 0.0
2018-Feb-10 23:55N 30°13' W 093°15'0 0.0
2018-Feb-10 23:25N 30°13' W 093°15'0 0.0
2018-Feb-10 23:00N 30°13' W 093°15'0 0.0
2018-Feb-10 22:27N 30°13' W 093°15'0 0.0
2018-Feb-10 22:00N 30°13' W 093°15'0 0.0
2018-Feb-10 21:29N 30°13' W 093°15'0 0.0
2018-Feb-10 21:00N 30°13' W 093°15'0 0.0
2018-Feb-10 20:30N 30°13' W 093°15'0 0.0
2018-Feb-10 20:01N 30°13' W 093°15'0 0.0
2018-Feb-10 19:31N 30°13' W 093°15'0 0.0
2018-Feb-10 19:01N 30°13' W 093°15'0 0.0
2018-Feb-10 18:31N 30°13' W 093°15'0 0.0
2018-Feb-10 18:01N 30°13' W 093°15'0 0.0
2018-Feb-10 17:29N 30°13' W 093°15'0 0.0
2018-Feb-10 17:01N 30°13' W 093°15'0 0.0
2018-Feb-10 16:31N 30°13' W 093°15'0 0.0
2018-Feb-10 16:01N 30°13' W 093°15'0 0.0
2018-Feb-10 15:31N 30°13' W 093°15'0 0.0
2018-Feb-10 15:01N 30°13' W 093°15'0 0.0
2018-Feb-10 14:30N 30°13' W 093°15'0 0.0
2018-Feb-10 14:00N 30°13' W 093°15'0 0.0
2018-Feb-10 13:31N 30°13' W 093°15'0 0.0
2018-Feb-10 13:00N 30°13' W 093°15'0 0.0
2018-Feb-10 12:30N 30°13' W 093°15'0 0.0
2018-Feb-10 12:01N 30°13' W 093°15'0 0.0
2018-Feb-10 11:31N 30°13' W 093°15'0 0.0
2018-Feb-10 11:00N 30°13' W 093°15'0 0.0
2018-Feb-10 10:29N 30°13' W 093°15'0 0.0
2018-Feb-10 10:00N 30°13' W 093°15'0 0.0
2018-Feb-10 09:31N 30°13' W 093°15'0 0.0
2018-Feb-10 09:01N 30°13' W 093°15'0 0.0
2018-Feb-10 08:30N 30°13' W 093°15'0 0.0
2018-Feb-10 08:01N 30°13' W 093°15'0 0.0
2018-Feb-10 07:30N 30°13' W 093°15'0 0.0
2018-Feb-10 07:01N 30°13' W 093°15'0 0.0
2018-Feb-10 06:31N 30°13' W 093°15'0 0.0
2018-Feb-10 06:01N 30°13' W 093°15'0 0.0
2018-Feb-10 05:30N 30°13' W 093°15'0 0.0
2018-Feb-10 05:01N 30°13' W 093°15'0 0.0
2018-Feb-10 04:31N 30°13' W 093°15'0 0.0
2018-Feb-10 04:01N 30°13' W 093°15'0 0.0
2018-Feb-10 03:31N 30°13' W 093°15'0 0.0
2018-Feb-10 03:01N 30°13' W 093°15'0 0.0
2018-Feb-10 02:31N 30°13' W 093°15'0 0.0
2018-Feb-10 02:00N 30°13' W 093°15'0 0.0
2018-Feb-10 01:31N 30°13' W 093°15'0 0.0
2018-Feb-10 01:01N 30°13' W 093°15'4 0.2
2018-Feb-09 06:31N 30°10' W 093°19'  

Dump ship's entire track history